Time;durP1;ratioP1;P1;durP2;ratioP2;P2;SDS_P1;SDS_P2;PMS_P1;PMS_P2;Temp;Humidity;BMP_temperature;BMP_pressure;BME280_temperature;BME280_humidity;BME280_pressure;Samples;Min_cycle;Max_cycle;Signal;HPM_P1;HPM_P2
2020/12/06 00:00:05;;;;;;;31.67;19.27;;;;;;;6.24;70.06;94888.47;5073676;28;20194;-68
2020/12/06 00:02:31;;;;;;;32.00;19.23;;;;;;;6.20;70.21;94902.81;5072181;28;20448;-67
2020/12/06 00:04:57;;;;;;;31.23;20.60;;;;;;;6.36;69.81;94893.19;5073693;28;20854;-68
2020/12/06 00:07:22;;;;;;;30.20;19.70;;;;;;;6.41;69.62;94885.66;5074159;28;20654;-68
2020/12/06 00:09:48;;;;;;;31.30;19.80;;;;;;;6.34;69.92;94885.59;5069223;28;20206;-68
2020/12/06 00:12:14;;;;;;;27.87;18.30;;;;;;;6.28;69.89;94881.09;5073165;28;20174;-67
2020/12/06 00:14:39;;;;;;;32.23;20.87;;;;;;;6.09;70.29;94874.66;5071852;28;20182;-67
2020/12/06 00:17:05;;;;;;;33.40;20.00;;;;;;;6.18;70.29;94870.97;5054234;28;20206;-68
2020/12/06 00:19:31;;;;;;;30.50;19.50;;;;;;;6.22;70.16;94874.84;5073323;28;20274;-67
2020/12/06 00:21:56;;;;;;;31.47;20.53;;;;;;;6.28;69.97;94884.53;5070526;28;20186;-68
2020/12/06 00:24:22;;;;;;;28.40;19.33;;;;;;;6.28;70.13;94887.13;5062824;28;20184;-67
2020/12/06 00:26:48;;;;;;;31.73;20.37;;;;;;;6.20;70.06;94887.22;5067765;28;20186;-67
2020/12/06 00:29:13;;;;;;;30.50;19.70;;;;;;;6.24;70.63;94888.47;5072468;28;20494;-67
2020/12/06 00:31:39;;;;;;;26.77;18.07;;;;;;;6.35;69.95;94879.41;5073030;28;20293;-68
2020/12/06 00:34:05;;;;;;;27.03;17.73;;;;;;;6.47;69.84;94865.91;5066129;28;20186;-69
2020/12/06 00:36:30;;;;;;;29.53;17.93;;;;;;;6.42;69.58;94867.25;5073054;28;20178;-68
2020/12/06 00:38:56;;;;;;;27.47;18.20;;;;;;;6.36;69.42;94849.78;5076430;28;20202;-68
2020/12/06 00:41:23;;;;;;;29.40;18.97;;;;;;;6.38;69.95;94834.78;5068499;28;20174;-68
2020/12/06 00:43:49;;;;;;;36.67;20.20;;;;;;;6.30;69.93;94833.09;5065175;28;20190;-68
2020/12/06 00:46:21;;;;;;;27.20;18.23;;;;;;;6.40;69.58;94819.00;5056996;28;20443;-68
2020/12/06 00:48:48;;;;;;;28.97;18.47;;;;;;;6.49;69.54;94812.69;5071150;28;20451;-68
2020/12/06 00:51:13;;;;;;;28.97;18.30;;;;;;;6.52;69.87;94808.91;5073440;28;20457;-69
2020/12/06 00:53:43;;;;;;;28.50;18.07;;;;;;;6.52;69.80;94794.09;5072281;28;20416;-66
2020/12/06 00:56:16;;;;;;;24.50;16.23;;;;;;;6.51;69.78;94779.50;5070738;28;20588;-68
2020/12/06 00:58:43;;;;;;;23.83;16.40;;;;;;;6.42;69.88;94775.41;5072958;28;20451;-68
2020/12/06 01:01:08;;;;;;;26.80;18.60;;;;;;;6.48;69.61;94790.25;5073045;28;20420;-69
2020/12/06 01:03:34;;;;;;;28.40;18.97;;;;;;;6.46;69.76;94805.25;5073520;28;20425;-68
2020/12/06 01:06:00;;;;;;;30.30;18.57;;;;;;;6.28;69.84;94801.28;5071492;28;20218;-68
2020/12/06 01:08:25;;;;;;;29.50;18.80;;;;;;;6.36;69.67;94792.56;5053716;28;20660;-68
2020/12/06 01:10:51;;;;;;;28.70;18.10;;;;;;;6.35;69.68;94775.34;5070584;28;20569;-68
2020/12/06 01:13:16;;;;;;;27.60;18.27;;;;;;;6.44;69.90;94778.59;5072128;28;20179;-68
2020/12/06 01:15:42;;;;;;;28.50;18.97;;;;;;;6.38;69.77;94787.16;5073007;28;20225;-68
2020/12/06 01:18:08;;;;;;;29.07;19.23;;;;;;;6.26;70.19;94798.06;5053232;28;20606;-68
2020/12/06 01:20:33;;;;;;;30.47;19.37;;;;;;;6.31;69.91;94789.69;5072504;28;20210;-68
2020/12/06 01:22:59;;;;;;;25.13;17.97;;;;;;;6.41;70.00;94810.22;5071700;28;20186;-69
2020/12/06 01:25:25;;;;;;;31.00;18.93;;;;;;;6.28;70.02;94818.66;5071991;28;20175;-68
2020/12/06 01:27:50;;;;;;;28.47;18.37;;;;;;;6.39;70.02;94835.59;5072313;28;20186;-68
2020/12/06 01:30:16;;;;;;;28.40;18.30;;;;;;;6.47;69.85;94832.09;5072947;28;20206;-67
2020/12/06 01:32:42;;;;;;;27.03;18.97;;;;;;;6.38;69.66;94832.19;5073556;28;20550;-67
2020/12/06 01:35:07;;;;;;;32.43;20.20;;;;;;;6.35;70.03;94832.56;5056458;28;20182;-68
2020/12/06 01:37:33;;;;;;;31.63;20.07;;;;;;;6.39;69.78;94835.59;5073763;28;20212;-67
2020/12/06 01:39:59;;;;;;;32.53;20.43;;;;;;;5.73;71.44;94839.00;5073060;28;20202;-68
2020/12/06 01:42:24;;;;;;;30.60;18.70;;;;;;;5.49;72.54;94839.06;5072026;28;20186;-67
2020/12/06 01:45:00;;;;;;;30.27;20.13;;;;;;;5.44;73.03;94845.78;5072597;28;20236;-66
2020/12/06 01:47:27;;;;;;;30.33;20.07;;;;;;;5.86;71.80;94849.56;5072216;28;20268;-69
2020/12/06 01:49:56;;;;;;;32.33;20.60;;;;;;;5.87;71.73;94856.38;5071588;28;20451;-69
2020/12/06 01:52:22;;;;;;;33.33;21.30;;;;;;;5.77;71.99;94846.25;5072742;28;20511;-69
2020/12/06 01:54:49;;;;;;;34.30;21.77;;;;;;;5.60;72.22;94840.44;5071173;28;20464;-68
2020/12/06 01:57:14;;;;;;;32.83;21.67;;;;;;;5.65;72.32;94832.09;5072961;28;20452;-69
2020/12/06 01:59:40;;;;;;;37.50;21.43;;;;;;;5.42;73.55;94832.19;5072492;28;20437;-68
2020/12/06 02:02:06;;;;;;;31.60;20.50;;;;;;;5.76;72.51;94830.84;5070411;28;20369;-69
2020/12/06 02:04:32;;;;;;;33.00;21.10;;;;;;;5.68;72.14;94826.53;5072481;28;20179;-68
2020/12/06 02:06:59;;;;;;;32.00;20.23;;;;;;;5.73;71.99;94826.81;5071307;28;20424;-69
2020/12/06 02:09:27;;;;;;;30.97;20.70;;;;;;;5.89;71.69;94825.81;5068489;28;20432;-68
2020/12/06 02:11:52;;;;;;;32.97;20.90;;;;;;;5.74;71.39;94819.81;5071740;28;20460;-68
2020/12/06 02:14:18;;;;;;;31.20;19.50;;;;;;;5.83;71.58;94810.94;5072085;28;20416;-68
2020/12/06 02:16:44;;;;;;;34.57;20.70;;;;;;;5.90;71.24;94800.59;5070096;28;20182;-68
2020/12/06 02:19:10;;;;;;;28.40;18.80;;;;;;;5.59;72.38;94802.44;5070248;28;20483;-69
2020/12/06 02:21:40;;;;;;;29.00;20.27;;;;;;;5.39;73.05;94804.75;5077435;28;20214;-68
2020/12/06 02:24:07;;;;;;;31.90;20.20;;;;;;;5.58;72.48;94813.03;5081754;28;20954;-68
2020/12/06 02:26:42;;;;;;;36.73;20.60;;;;;;;5.46;73.09;94817.84;5076689;28;20428;-68
2020/12/06 02:29:08;;;;;;;31.60;20.20;;;;;;;5.51;73.10;94818.13;5054579;28;20440;-69
2020/12/06 02:31:34;;;;;;;28.53;19.97;;;;;;;5.52;72.67;94823.13;5072943;28;20611;-69
2020/12/06 02:34:00;;;;;;;31.17;20.00;;;;;;;5.15;73.93;94800.63;5049491;28;20434;-69
2020/12/06 02:36:25;;;;;;;32.13;19.60;;;;;;;5.17;74.54;94788.25;5071388;28;20424;-68
2020/12/06 02:38:51;;;;;;;31.87;21.73;;;;;;;5.07;74.01;94789.31;5071919;28;20264;-68
2020/12/06 02:41:17;;;;;;;30.23;19.10;;;;;;;5.14;74.87;94786.84;5072298;28;20174;-66
2020/12/06 02:43:43;;;;;;;33.13;19.37;;;;;;;4.93;74.73;94769.34;5072152;28;20545;-69
2020/12/06 02:46:09;;;;;;;31.43;19.60;;;;;;;4.60;76.33;94762.66;5059144;28;20265;-68
2020/12/06 02:48:34;;;;;;;31.93;19.47;;;;;;;4.79;75.04;94757.97;5073783;28;20261;-67
2020/12/06 02:51:02;;;;;;;36.97;20.80;;;;;;;4.66;76.27;94761.16;5073853;28;20194;-68
2020/12/06 02:53:28;;;;;;;40.40;22.10;;;;;;;4.68;75.91;94764.38;5073318;28;20539;-68
2020/12/06 02:55:54;;;;;;;39.07;22.30;;;;;;;4.70;76.11;94775.38;5074979;28;20425;-68
2020/12/06 02:58:19;;;;;;;40.80;21.97;;;;;;;4.92;75.31;94778.09;5074995;28;20205;-69
2020/12/06 03:00:45;;;;;;;38.40;21.60;;;;;;;4.97;75.22;94773.22;5073947;28;20179;-68
2020/12/06 03:03:11;;;;;;;42.23;23.03;;;;;;;4.71;75.38;94769.22;5074832;28;20183;-68
2020/12/06 03:05:36;;;;;;;43.13;23.20;;;;;;;4.66;75.75;94770.72;5073504;28;20182;-68
2020/12/06 03:08:02;;;;;;;42.60;23.50;;;;;;;4.81;75.26;94779.34;5074729;28;20177;-67
2020/12/06 03:10:28;;;;;;;46.03;24.33;;;;;;;4.71;76.24;94766.63;5070171;28;20209;-68
2020/12/06 03:12:53;;;;;;;46.17;25.10;;;;;;;4.55;76.60;94777.13;5074616;28;20252;-68
2020/12/06 03:15:19;;;;;;;43.00;23.90;;;;;;;4.85;75.80;94790.19;5074738;28;20175;-68
2020/12/06 03:17:45;;;;;;;40.53;22.93;;;;;;;5.19;74.99;94801.88;5072594;28;20239;-68
2020/12/06 03:20:11;;;;;;;47.17;24.53;;;;;;;5.08;74.59;94806.53;5073875;28;20194;-68
2020/12/06 03:22:36;;;;;;;54.60;24.10;;;;;;;4.90;74.85;94808.66;5074960;28;20228;-69
2020/12/06 03:25:03;;;;;;;49.00;24.77;;;;;;;4.97;74.67;94798.38;5074306;28;20186;-67
2020/12/06 03:27:28;;;;;;;46.07;25.20;;;;;;;4.95;74.18;94797.72;5074011;28;20230;-69
2020/12/06 03:29:55;;;;;;;52.70;24.67;;;;;;;5.10;74.31;94801.16;5074261;28;20935;-68
2020/12/06 03:32:22;;;;;;;46.33;25.87;;;;;;;4.80;74.88;94788.13;5074403;28;20197;-69
2020/12/06 03:34:48;;;;;;;46.13;24.40;;;;;;;4.53;76.23;94782.50;5074512;28;20916;-67
2020/12/06 03:37:14;;;;;;;51.80;26.33;;;;;;;4.66;76.00;94779.34;5074044;28;20421;-69
2020/12/06 03:39:40;;;;;;;55.60;26.50;;;;;;;4.72;75.26;94783.81;5074592;28;20718;-70
2020/12/06 03:42:05;;;;;;;54.17;27.40;;;;;;;4.91;74.93;94805.06;5058214;28;20413;-69
2020/12/06 03:44:32;;;;;;;48.27;25.50;;;;;;;4.56;76.36;94809.88;5074272;28;20680;-68
2020/12/06 03:46:57;;;;;;;57.00;28.37;;;;;;;4.49;76.21;94796.78;5072237;28;20178;-68
2020/12/06 03:49:23;;;;;;;47.37;25.93;;;;;;;4.64;75.37;94776.09;5073125;28;20749;-67
2020/12/06 03:51:49;;;;;;;51.30;27.07;;;;;;;4.39;76.66;94765.91;5074120;28;20206;-68
2020/12/06 03:54:14;;;;;;;53.57;27.17;;;;;;;4.11;77.85;94779.38;5073242;28;20182;-69
2020/12/06 03:56:40;;;;;;;53.83;26.33;;;;;;;4.22;77.80;94774.78;5068171;28;20317;-69
2020/12/06 03:59:06;;;;;;;57.03;27.90;;;;;;;4.38;77.15;94795.41;5072420;28;20255;-68
2020/12/06 04:01:31;;;;;;;55.90;28.47;;;;;;;4.35;76.56;94792.38;5074275;28;20170;-67
2020/12/06 04:03:57;;;;;;;61.50;27.77;;;;;;;4.28;77.33;94789.66;5072364;28;20178;-68
2020/12/06 04:06:23;;;;;;;50.00;26.40;;;;;;;4.41;76.65;94786.47;5052366;28;20257;-67
2020/12/06 04:08:48;;;;;;;53.30;26.73;;;;;;;4.33;76.93;94791.72;5067237;28;20195;-67
2020/12/06 04:11:14;;;;;;;100.60;25.73;;;;;;;4.09;78.08;94793.50;5073888;28;20204;-68
2020/12/06 04:13:40;;;;;;;85.80;27.33;;;;;;;4.03;78.02;94800.19;5073348;28;20273;-67
2020/12/06 04:16:06;;;;;;;188.57;28.00;;;;;;;4.21;77.70;94801.69;5072801;28;20209;-69
2020/12/06 04:18:31;;;;;;;212.57;33.20;;;;;;;4.37;77.02;94796.41;5073366;28;20194;-67
2020/12/06 04:20:57;;;;;;;340.67;31.23;;;;;;;4.38;77.07;94779.84;5073203;28;20268;-67
2020/12/06 04:23:23;;;;;;;496.23;32.80;;;;;;;3.99;77.76;94791.13;5072599;28;20218;-68
2020/12/06 04:25:48;;;;;;;140.33;30.23;;;;;;;4.65;76.39;94785.50;5071411;28;20190;-69
2020/12/06 04:28:14;;;;;;;109.60;28.57;;;;;;;4.91;75.48;94790.28;5073097;28;20209;-67
2020/12/06 04:30:40;;;;;;;416.57;40.60;;;;;;;4.83;75.71;94786.97;5072166;28;20289;-67
2020/12/06 04:33:05;;;;;;;242.17;29.13;;;;;;;4.98;74.71;94793.00;5072492;28;20261;-68
2020/12/06 04:35:31;;;;;;;249.23;31.03;;;;;;;4.75;75.20;94793.03;5071368;28;20178;-68
2020/12/06 04:37:56;;;;;;;284.63;31.00;;;;;;;4.48;76.93;94789.19;5059718;28;20182;-68
2020/12/06 04:40:23;;;;;;;434.23;32.63;;;;;;;4.22;78.09;94798.09;5068970;28;20174;-69
2020/12/06 04:42:49;;;;;;;494.07;33.97;;;;;;;3.97;77.96;94793.84;5071909;28;20272;-67
2020/12/06 04:45:14;;;;;;;438.93;34.57;;;;;;;4.08;78.54;94790.09;5073105;28;20432;-68
2020/12/06 04:47:48;;;;;;;233.70;28.40;;;;;;;4.44;77.89;94802.50;5073523;28;20425;-68
2020/12/06 04:50:26;;;;;;;265.93;28.90;;;;;;;4.41;76.91;94810.63;5057690;28;20292;-68
2020/12/06 04:52:57;;;;;;;313.23;30.17;;;;;;;4.67;76.65;94819.84;5069795;28;20435;-68
2020/12/06 04:55:35;;;;;;;214.20;30.00;;;;;;;4.51;76.76;94830.34;5072177;28;20445;-66
2020/12/06 04:58:02;;;;;;;450.77;38.13;;;;;;;4.39;77.33;94822.97;5070910;28;20949;-68
2020/12/06 05:00:31;;;;;;;466.40;32.57;;;;;;;4.13;78.56;94821.50;5071778;28;20413;-69
2020/12/06 05:03:14;;;;;;;514.93;37.13;;;;;;;4.30;77.84;94813.59;5071866;28;20449;-68
2020/12/06 05:05:41;;;;;;;503.63;35.10;;;;;;;4.18;77.70;94799.41;5071023;28;20417;-67
2020/12/06 05:08:09;;;;;;;210.17;30.57;;;;;;;4.66;76.83;94801.84;5058901;28;20506;-68
2020/12/06 05:10:46;;;;;;;271.50;30.37;;;;;;;4.67;76.23;94804.25;5067650;28;20452;-68
2020/12/06 05:13:13;;;;;;;478.70;34.63;;;;;;;4.36;77.46;94818.13;5056769;28;20412;-68
2020/12/06 05:15:39;;;;;;;485.40;34.77;;;;;;;4.29;77.70;94799.84;5054394;28;20425;-68
2020/12/06 05:18:05;;;;;;;546.60;36.60;;;;;;;4.24;77.74;94796.16;5071481;28;20463;-68
2020/12/06 05:20:31;;;;;;;490.60;38.33;;;;;;;4.18;78.50;94797.66;5071015;28;20416;-68
2020/12/06 05:22:57;;;;;;;338.17;33.27;;;;;;;4.21;78.44;94792.13;5072080;28;20189;-69
2020/12/06 05:25:23;;;;;;;536.07;36.53;;;;;;;3.79;80.02;94791.53;5071010;28;20435;-68
2020/12/06 05:27:49;;;;;;;531.47;36.27;;;;;;;3.78;79.60;94782.13;5070815;28;20421;-68
2020/12/06 05:30:16;;;;;;;534.77;38.30;;;;;;;3.78;79.35;94800.25;5072734;28;20597;-68
2020/12/06 05:32:42;;;;;;;545.47;36.80;;;;;;;4.00;79.40;94813.47;5072187;28;20421;-70
2020/12/06 05:35:09;;;;;;;493.40;38.40;;;;;;;4.01;78.91;94815.09;5072518;28;20424;-69
2020/12/06 05:37:36;;;;;;;589.13;48.93;;;;;;;3.92;79.64;94808.31;5059760;28;20417;-67
2020/12/06 05:40:02;;;;;;;394.90;36.63;;;;;;;4.04;78.41;94822.50;5077988;28;20456;-69
2020/12/06 05:42:29;;;;;;;240.10;32.07;;;;;;;4.19;78.26;94814.00;5074983;28;20442;-68
2020/12/06 05:44:56;;;;;;;220.70;34.77;;;;;;;3.87;78.85;94802.84;5069634;28;20512;-68
2020/12/06 05:47:22;;;;;;;187.27;33.17;;;;;;;3.90;79.36;94787.75;5071356;28;20511;-69
2020/12/06 05:49:48;;;;;;;96.17;31.20;;;;;;;4.45;77.33;94803.31;5072851;28;21006;-69
2020/12/06 05:52:18;;;;;;;145.27;30.60;;;;;;;4.14;77.17;94804.16;5072343;28;20460;-67
2020/12/06 05:54:45;;;;;;;122.20;31.17;;;;;;;4.15;77.65;94803.16;5071397;28;20429;-68
2020/12/06 05:57:12;;;;;;;104.47;31.30;;;;;;;4.52;76.34;94803.44;5071798;28;21107;-68
2020/12/06 05:59:38;;;;;;;91.33;30.23;;;;;;;4.66;75.89;94801.84;5070962;28;20866;-69
2020/12/06 06:02:04;;;;;;;140.67;30.30;;;;;;;4.57;75.23;94807.13;5070298;28;20428;-68
2020/12/06 06:04:32;;;;;;;115.03;30.17;;;;;;;4.25;76.44;94811.53;5071751;28;20431;-69
2020/12/06 06:07:00;;;;;;;134.83;29.77;;;;;;;4.47;76.56;94803.97;5057694;28;20444;-69
2020/12/06 06:09:27;;;;;;;131.37;30.30;;;;;;;4.53;75.96;94812.81;5067489;28;21020;-67
2020/12/06 06:12:08;;;;;;;102.73;29.43;;;;;;;4.62;75.95;94827.34;5070411;28;20551;-69
2020/12/06 06:14:34;;;;;;;267.57;35.13;;;;;;;4.14;76.14;94817.94;5053061;28;20421;-69
2020/12/06 06:17:00;;;;;;;249.37;28.40;;;;;;;4.20;77.65;94815.63;5055570;28;20444;-67
2020/12/06 06:19:25;;;;;;;90.17;28.27;;;;;;;4.68;75.90;94802.50;5063752;28;20432;-67
2020/12/06 06:21:52;;;;;;;180.13;28.97;;;;;;;4.31;76.12;94802.25;5074925;28;20198;-68
2020/12/06 06:24:24;;;;;;;210.60;28.33;;;;;;;4.44;76.62;94801.69;5076463;28;20522;-68
2020/12/06 06:26:51;;;;;;;125.97;28.47;;;;;;;4.34;76.61;94808.91;5075470;28;20428;-68
2020/12/06 06:29:18;;;;;;;205.90;28.70;;;;;;;4.44;76.25;94814.66;5075807;28;20502;-68
2020/12/06 06:31:46;;;;;;;101.63;24.40;;;;;;;4.72;75.61;94822.72;5074855;28;20958;-68
2020/12/06 06:34:12;;;;;;;119.47;27.37;;;;;;;4.92;74.74;94832.63;5074844;28;20515;-68
2020/12/06 06:36:38;;;;;;;106.73;26.10;;;;;;;5.04;74.55;94851.19;5075551;28;20461;-68
2020/12/06 06:39:05;;;;;;;170.67;27.10;;;;;;;4.96;74.02;94857.25;5074740;28;20206;-68
2020/12/06 06:41:32;;;;;;;119.23;24.27;;;;;;;4.77;75.17;94874.09;5075834;28;20534;-68
2020/12/06 06:44:02;;;;;;;76.67;23.30;;;;;;;4.75;75.33;94869.09;5075574;28;20519;-67
2020/12/06 06:46:32;;;;;;;138.90;26.30;;;;;;;4.64;75.37;94866.91;5065434;28;20535;-68
2020/12/06 06:48:58;;;;;;;105.77;24.87;;;;;;;4.37;75.95;94884.56;5070005;28;20452;-68
2020/12/06 06:51:24;;;;;;;172.17;25.80;;;;;;;4.44;76.44;94882.09;5075747;28;20453;-68
2020/12/06 06:53:50;;;;;;;86.53;22.73;;;;;;;4.79;75.88;94879.13;5075996;28;20611;-68
2020/12/06 06:56:18;;;;;;;80.30;21.40;;;;;;;5.02;74.97;94884.28;5074510;28;20676;-68
2020/12/06 06:58:47;;;;;;;157.93;23.37;;;;;;;4.93;74.46;94883.53;5076077;28;20543;-68
2020/12/06 07:01:19;;;;;;;136.63;23.70;;;;;;;4.70;75.67;94881.75;5060900;28;20429;-68
2020/12/06 07:03:47;;;;;;;130.10;25.13;;;;;;;4.21;77.17;94887.22;5076388;28;20428;-68
2020/12/06 07:06:48;;;;;;;109.37;22.57;;;;;;;4.60;76.73;94888.97;5075105;28;20443;-68
2020/12/06 07:09:30;;;;;;;171.70;24.00;;;;;;;4.60;76.18;94878.59;5056831;28;20938;-67
2020/12/06 07:11:59;;;;;;;192.43;21.83;;;;;;;4.70;76.38;94875.78;5075731;28;20544;-68
2020/12/06 07:14:27;;;;;;;130.03;21.30;;;;;;;4.24;77.80;94887.69;5075013;28;20428;-69
2020/12/06 07:16:54;;;;;;;87.57;21.80;;;;;;;4.75;76.18;94873.47;5062632;28;20477;-68
2020/12/06 07:19:20;;;;;;;75.53;22.03;;;;;;;4.92;75.69;94880.16;5074152;28;20493;-69
2020/12/06 07:21:48;;;;;;;108.80;22.83;;;;;;;4.86;75.07;94882.63;5074362;28;20439;-68
2020/12/06 07:24:15;;;;;;;62.47;21.40;;;;;;;5.17;74.59;94881.72;5073247;28;20435;-68
2020/12/06 07:26:45;;;;;;;82.37;21.90;;;;;;;4.80;75.61;94867.75;5072977;28;20432;-67
2020/12/06 07:29:11;;;;;;;123.70;21.50;;;;;;;4.66;75.74;94869.31;5072456;28;20440;-68
2020/12/06 07:31:37;;;;;;;131.37;21.17;;;;;;;4.63;76.24;94865.28;5073362;28;20955;-68
2020/12/06 07:34:04;;;;;;;103.13;22.77;;;;;;;4.79;76.03;94860.97;5079959;28;20447;-68
2020/12/06 07:36:34;;;;;;;158.10;20.40;;;;;;;5.01;74.63;94857.53;5077052;28;20491;-67
2020/12/06 07:39:00;;;;;;;110.93;19.73;;;;;;;4.79;75.73;94864.34;5076720;28;20449;-68
2020/12/06 07:41:26;;;;;;;110.07;22.50;;;;;;;4.76;75.90;94862.94;5072564;28;20429;-67
2020/12/06 07:43:55;;;;;;;84.60;19.67;;;;;;;4.82;75.44;94860.59;5078138;28;20429;-68
2020/12/06 07:46:21;;;;;;;99.03;20.60;;;;;;;4.87;75.17;94860.91;5065825;28;20240;-69
2020/12/06 07:48:48;;;;;;;101.70;20.03;;;;;;;4.65;75.93;94871.13;5080670;28;20449;-68
2020/12/06 07:51:23;;;;;;;76.40;20.20;;;;;;;4.88;76.37;94873.69;5079780;28;20472;-68
2020/12/06 07:53:50;;;;;;;153.77;21.83;;;;;;;4.76;76.00;94873.31;5073948;28;20474;-69
2020/12/06 07:56:23;;;;;;;61.80;18.93;;;;;;;5.06;75.58;94875.97;5065640;28;20420;-68
2020/12/06 07:59:07;;;;;;;71.00;19.57;;;;;;;5.30;74.45;94889.75;5065760;28;20472;-70
2020/12/06 08:01:33;;;;;;;83.77;19.70;;;;;;;5.38;74.68;94892.28;5072832;28;20458;-68
2020/12/06 08:03:59;;;;;;;78.87;20.10;;;;;;;5.41;74.55;94892.91;5072488;28;20440;-68
2020/12/06 08:06:27;;;;;;;146.60;18.97;;;;;;;4.39;77.56;94897.34;5073695;28;20189;-68
2020/12/06 08:08:58;;;;;;;93.80;18.87;;;;;;;4.82;75.96;94892.56;5068993;28;20445;-68
2020/12/06 08:11:30;;;;;;;55.43;19.20;;;;;;;5.26;74.90;94895.47;5073231;28;21058;-70
2020/12/06 08:13:55;;;;;;;66.90;19.43;;;;;;;5.33;74.55;94892.00;5071304;28;20539;-68
2020/12/06 08:16:21;;;;;;;73.73;18.80;;;;;;;5.12;74.94;94894.44;5061790;28;20775;-68
2020/12/06 08:19:00;;;;;;;50.63;18.40;;;;;;;5.20;74.22;94890.00;5073984;28;20563;-69
2020/12/06 08:21:45;;;;;;;62.27;17.73;;;;;;;5.04;74.29;94901.31;5072742;28;20633;-69
2020/12/06 08:24:21;;;;;;;50.23;18.20;;;;;;;5.18;74.58;94878.16;5074091;28;20413;-68
2020/12/06 08:26:48;;;;;;;63.83;16.53;;;;;;;5.34;74.27;94872.81;5073396;28;20446;-67
2020/12/06 08:29:14;;;;;;;54.57;15.97;;;;;;;5.00;74.85;94886.25;5073747;28;20445;-67
2020/12/06 08:31:40;;;;;;;53.40;19.17;;;;;;;4.89;75.80;94890.09;5055463;28;20484;-69
2020/12/06 08:34:10;;;;;;;54.83;18.50;;;;;;;5.03;75.16;94876.34;5072241;28;20516;-67
2020/12/06 08:36:36;;;;;;;43.77;16.67;;;;;;;5.27;74.55;94884.09;5073492;28;20494;-67
2020/12/06 08:39:02;;;;;;;43.20;17.20;;;;;;;5.17;74.72;94879.13;5073176;28;20480;-68
2020/12/06 08:41:28;;;;;;;44.67;17.27;;;;;;;5.32;74.04;94884.38;5071626;28;20421;-69
2020/12/06 08:44:01;;;;;;;42.33;17.53;;;;;;;5.13;74.91;94890.88;5066586;28;20945;-67
2020/12/06 08:46:27;;;;;;;42.30;15.70;;;;;;;5.22;74.71;94874.25;5061448;28;20198;-67
2020/12/06 08:48:55;;;;;;;38.67;15.03;;;;;;;5.43;74.11;94859.75;5073491;28;20505;-68
2020/12/06 08:51:33;;;;;;;38.37;16.03;;;;;;;5.34;74.50;94849.44;5074947;28;20456;-67
2020/12/06 08:54:01;;;;;;;38.27;15.63;;;;;;;5.50;74.52;94863.28;5082264;28;20428;-68
2020/12/06 08:56:37;;;;;;;34.20;14.20;;;;;;;5.62;73.87;94869.63;5080113;28;20474;-67
2020/12/06 08:59:06;;;;;;;30.20;13.87;;;;;;;5.65;73.27;94874.50;5075528;28;20456;-67
2020/12/06 09:01:32;;;;;;;34.80;13.63;;;;;;;5.25;73.06;94855.72;5073486;28;20440;-69
2020/12/06 09:03:58;;;;;;;32.00;13.30;;;;;;;5.56;73.25;94846.16;5054364;28;20428;-67
2020/12/06 09:06:24;;;;;;;32.30;13.97;;;;;;;5.44;73.39;94853.56;5072664;28;21081;-67
2020/12/06 09:08:50;;;;;;;24.30;11.37;;;;;;;5.58;72.94;94849.41;5068416;28;20512;-68
2020/12/06 09:11:20;;;;;;;27.87;11.97;;;;;;;5.67;72.66;94858.72;5064643;28;20210;-69
2020/12/06 09:13:46;;;;;;;23.93;11.93;;;;;;;5.70;72.78;94866.16;5073000;28;20273;-68
2020/12/06 09:16:12;;;;;;;26.77;12.80;;;;;;;5.36;72.69;94870.88;5061865;28;20450;-68
2020/12/06 09:18:41;;;;;;;24.57;11.80;;;;;;;4.79;75.25;94866.94;5073100;28;20464;-68
2020/12/06 09:21:07;;;;;;;25.53;10.80;;;;;;;5.31;74.14;94857.59;5072850;28;20911;-67
2020/12/06 09:23:33;;;;;;;27.50;12.33;;;;;;;5.43;73.27;94850.19;5071195;28;20426;-68
2020/12/06 09:26:00;;;;;;;31.50;12.83;;;;;;;5.48;73.51;94855.63;5071668;28;20911;-68
2020/12/06 09:28:26;;;;;;;26.67;11.47;;;;;;;5.41;73.51;94851.34;5066051;28;21204;-66
2020/12/06 09:30:52;;;;;;;26.87;11.97;;;;;;;5.50;73.57;94860.66;5069842;28;20499;-68
2020/12/06 09:33:18;;;;;;;27.97;12.80;;;;;;;5.64;73.32;94877.25;5071258;28;20819;-69
2020/12/06 09:35:43;;;;;;;31.80;13.33;;;;;;;5.49;72.90;94891.03;5070888;28;20815;-68
2020/12/06 09:38:09;;;;;;;30.63;12.17;;;;;;;5.41;73.89;94898.91;5072312;28;20186;-68
2020/12/06 09:40:35;;;;;;;23.73;11.90;;;;;;;5.37;73.23;94900.22;5071086;28;20186;-68
2020/12/06 09:43:00;;;;;;;23.17;11.83;;;;;;;5.63;72.82;94893.81;5063199;28;20206;-69
2020/12/06 09:45:26;;;;;;;23.60;10.70;;;;;;;5.99;71.38;94886.16;5065151;28;20214;-68
2020/12/06 09:47:52;;;;;;;40.43;14.83;;;;;;;5.79;71.86;94877.28;5082366;28;20190;-70
2020/12/06 09:50:17;;;;;;;20.03;10.13;;;;;;;5.74;72.47;94893.38;5073979;28;20221;-69
2020/12/06 09:52:43;;;;;;;24.40;10.87;;;;;;;5.67;72.55;94898.47;5064547;28;20197;-68
2020/12/06 09:55:09;;;;;;;20.20;10.30;;;;;;;5.81;72.11;94896.91;5061022;28;20266;-69
2020/12/06 09:57:34;;;;;;;20.60;11.43;;;;;;;5.33;73.16;94891.19;5077873;28;20281;-69
2020/12/06 10:00:00;;;;;;;21.03;11.03;;;;;;;5.35;73.45;94890.03;5077762;28;20198;-69
2020/12/06 10:02:26;;;;;;;15.73;9.97;;;;;;;5.19;74.72;94888.38;5078954;28;20590;-69
2020/12/06 10:04:51;;;;;;;20.80;11.60;;;;;;;5.12;75.01;94879.66;5078093;28;20178;-69
2020/12/06 10:07:20;;;;;;;19.67;11.17;;;;;;;5.01;75.78;94870.53;5077369;28;20213;-68
2020/12/06 10:09:47;;;;;;;25.50;11.73;;;;;;;5.04;75.56;94866.75;5073508;28;20692;-69
2020/12/06 10:12:13;;;;;;;20.53;11.30;;;;;;;5.15;74.98;94862.94;5078069;28;20482;-68
2020/12/06 10:14:39;;;;;;;23.00;11.30;;;;;;;5.30;75.15;94853.38;5077353;28;20416;-67
2020/12/06 10:17:05;;;;;;;29.20;12.50;;;;;;;5.56;74.33;94865.16;5067770;28;20423;-68
2020/12/06 10:19:31;;;;;;;20.67;11.27;;;;;;;4.89;76.72;94895.28;5068898;28;20600;-68
2020/12/06 10:21:56;;;;;;;19.40;10.80;;;;;;;4.92;77.08;94903.53;5059482;28;20235;-69
2020/12/06 10:24:22;;;;;;;21.03;11.83;;;;;;;5.27;76.08;94910.88;5078943;28;20186;-68
2020/12/06 10:26:54;;;;;;;17.10;10.57;;;;;;;5.21;75.45;94924.56;5078813;28;20189;-68
2020/12/06 10:29:20;;;;;;;14.83;9.20;;;;;;;5.22;75.10;94910.59;5079310;28;20243;-68
2020/12/06 10:31:49;;;;;;;13.07;9.30;;;;;;;4.86;76.04;94908.59;5077834;28;20456;-68
2020/12/06 10:34:15;;;;;;;17.43;9.07;;;;;;;5.46;75.17;94891.41;5079607;28;20185;-68
2020/12/06 10:36:41;;;;;;;15.07;8.90;;;;;;;5.17;74.78;94886.94;5077679;28;20426;-67
2020/12/06 10:39:07;;;;;;;12.57;8.57;;;;;;;5.56;74.52;94885.13;5060001;28;20436;-68
2020/12/06 10:41:33;;;;;;;16.63;8.77;;;;;;;5.53;74.63;94883.72;5060774;28;20224;-68
2020/12/06 10:43:59;;;;;;;13.07;8.67;;;;;;;5.37;74.73;94877.69;5073705;28;20178;-68
2020/12/06 10:46:26;;;;;;;10.87;8.60;;;;;;;5.40;75.65;94880.91;5066813;28;20292;-68
2020/12/06 10:48:52;;;;;;;13.73;7.63;;;;;;;5.36;74.98;94878.66;5079299;28;20254;-69
2020/12/06 10:51:18;;;;;;;11.73;8.40;;;;;;;5.62;74.54;94869.63;5077745;28;20881;-68
2020/12/06 10:53:44;;;;;;;10.17;8.20;;;;;;;5.87;73.89;94877.16;5061005;28;20518;-68
2020/12/06 10:56:10;;;;;;;13.53;8.73;;;;;;;5.76;73.91;94869.81;5078717;28;20185;-68
2020/12/06 10:58:36;;;;;;;11.57;8.80;;;;;;;5.64;74.13;94870.28;5078189;28;20216;-68
2020/12/06 11:01:02;;;;;;;11.90;7.80;;;;;;;6.01;73.29;94874.78;5060619;28;20424;-67
2020/12/06 11:03:27;;;;;;;9.50;8.30;;;;;;;6.05;72.96;94883.84;5077200;28;20443;-68
2020/12/06 11:05:53;;;;;;;17.70;10.20;;;;;;;6.30;72.32;94887.72;5073097;28;20429;-68
2020/12/06 11:08:19;;;;;;;11.20;8.30;;;;;;;5.73;73.20;94884.00;5074223;28;20202;-68
2020/12/06 11:10:45;;;;;;;11.33;8.40;;;;;;;5.26;75.52;94880.72;5070618;28;20679;-67
2020/12/06 11:13:11;;;;;;;12.10;8.23;;;;;;;5.38;75.72;94887.09;5073535;28;20652;-68
2020/12/06 11:15:37;;;;;;;13.40;8.90;;;;;;;5.48;75.03;94870.44;5064635;28;20430;-68
2020/12/06 11:18:02;;;;;;;10.60;8.33;;;;;;;5.54;73.90;94872.34;5056213;28;20254;-68
2020/12/06 11:20:28;;;;;;;12.03;8.90;;;;;;;5.49;73.96;94862.44;5075416;28;20178;-68
2020/12/06 11:22:54;;;;;;;17.37;10.83;;;;;;;5.69;74.05;94870.53;5075636;28;20197;-68